createdAt,value
2023-02-11T00:01:26.964Z,63.26
2023-02-11T00:03:55.073Z,62.63
2023-02-11T00:06:23.961Z,61.64
2023-02-11T00:08:53.381Z,62.51
2023-02-11T00:11:23.171Z,64.29
2023-02-11T00:13:50.922Z,63.08
2023-02-11T00:16:20.628Z,63.15
2023-02-11T00:18:48.734Z,63.82
2023-02-11T00:21:18.460Z,63.94
2023-02-11T00:23:47.176Z,62.63
2023-02-11T00:26:17.614Z,62.80
2023-02-11T00:28:47.230Z,63.46
2023-02-11T00:31:16.268Z,63.16
2023-02-11T00:33:44.675Z,62.92
2023-02-11T00:36:15.641Z,63.85
2023-02-11T00:38:44.101Z,63.05
2023-02-11T00:41:11.976Z,62.94
2023-02-11T00:43:41.633Z,62.71
2023-02-11T00:46:09.900Z,62.88
2023-02-11T00:48:37.748Z,63.30
2023-02-11T00:51:05.854Z,62.90
2023-02-11T00:53:33.741Z,63.07
2023-02-11T00:56:02.118Z,63.28
2023-02-11T00:58:30.088Z,63.06
2023-02-11T01:00:59.311Z,64.08
2023-02-11T01:03:27.295Z,64.00
2023-02-11T01:05:56.039Z,64.19
2023-02-11T01:08:24.099Z,63.70
2023-02-11T01:10:56.619Z,63.42
2023-02-11T01:13:24.830Z,62.89
2023-02-11T01:15:55.204Z,62.94
2023-02-11T01:18:24.920Z,64.00
2023-02-11T01:20:53.480Z,64.49
2023-02-11T01:23:21.345Z,63.67
2023-02-11T01:25:49.463Z,63.63
2023-02-11T01:28:18.901Z,62.87
2023-02-11T01:30:47.004Z,63.60
2023-02-11T01:33:14.935Z,64.79
2023-02-11T01:35:44.964Z,64.19
2023-02-11T01:38:17.007Z,62.60
2023-02-11T01:40:48.675Z,62.96
2023-02-11T01:43:16.665Z,63.57
2023-02-11T01:46:05.440Z,63.55
2023-02-11T01:48:37.230Z,63.41
2023-02-11T01:51:10.169Z,64.31
2023-02-11T01:53:57.115Z,63.62
2023-02-11T01:56:43.023Z,63.36
2023-02-11T01:59:16.423Z,63.23
2023-02-11T02:01:47.879Z,63.99
2023-02-11T02:04:19.907Z,62.68
2023-02-11T02:06:53.359Z,64.39
2023-02-11T02:09:24.793Z,65.25
2023-02-11T02:11:52.775Z,64.95
2023-02-11T02:14:21.490Z,65.80
2023-02-11T02:16:49.638Z,65.37
2023-02-11T02:19:49.863Z,66.42
2023-02-11T02:22:48.122Z,66.74
2023-02-11T02:25:29.255Z,67.29
2023-02-11T02:28:09.493Z,66.71
2023-02-11T02:31:10.477Z,67.87
2023-02-11T02:33:46.664Z,66.34
2023-02-11T02:36:23.060Z,66.82
2023-02-11T02:38:56.657Z,67.25
2023-02-11T02:41:29.023Z,66.87
2023-02-11T02:43:57.209Z,66.56
2023-02-11T02:46:26.781Z,67.01
2023-02-11T02:48:57.368Z,67.31
2023-02-11T02:51:40.691Z,66.10
2023-02-11T02:54:31.272Z,65.85
2023-02-11T02:57:07.046Z,66.18
2023-02-11T02:59:45.305Z,66.27
2023-02-11T03:02:19.063Z,66.94
2023-02-11T03:04:56.729Z,66.07
2023-02-11T03:07:36.484Z,66.10
2023-02-11T03:10:10.207Z,66.54
2023-02-11T03:12:39.196Z,65.39
2023-02-11T03:15:08.317Z,65.78
2023-02-11T03:17:39.698Z,66.01
2023-02-11T03:20:14.204Z,64.03
2023-02-11T03:22:47.568Z,63.80
2023-02-11T03:25:16.419Z,63.92
2023-02-11T03:27:53.679Z,64.41
2023-02-11T03:30:27.531Z,63.04
2023-02-11T03:33:01.162Z,63.03
2023-02-11T03:35:36.665Z,62.66
2023-02-11T03:38:08.545Z,62.51
2023-02-11T03:40:39.391Z,62.40
2023-02-11T03:43:12.274Z,62.00
2023-02-11T03:45:41.286Z,62.44
2023-02-11T03:48:15.719Z,63.64
2023-02-11T03:50:46.904Z,63.38
2023-02-11T03:53:16.904Z,63.94
2023-02-11T03:55:46.708Z,64.32
2023-02-11T03:58:14.660Z,63.72
2023-02-11T04:00:44.471Z,64.07
2023-02-11T04:03:13.804Z,63.66
2023-02-11T04:05:41.934Z,63.72
2023-02-11T04:08:11.103Z,66.16
2023-02-11T04:10:38.857Z,66.01
2023-02-11T04:13:06.784Z,65.89
2023-02-11T04:15:34.563Z,65.20
2023-02-11T04:18:03.380Z,65.18
2023-02-11T04:20:31.720Z,66.53
2023-02-11T04:22:59.486Z,65.42
2023-02-11T04:25:29.147Z,66.87
2023-02-11T04:27:57.111Z,69.38
2023-02-11T04:30:24.945Z,69.15
2023-02-11T04:32:54.195Z,68.30
2023-02-11T04:35:22.256Z,69.15
2023-02-11T04:37:50.016Z,69.29
2023-02-11T04:40:18.139Z,70.02
2023-02-11T04:42:47.254Z,70.61
2023-02-11T04:45:15.002Z,71.38
2023-02-11T04:47:42.803Z,71.84
2023-02-11T04:50:10.882Z,72.98
2023-02-11T04:52:38.738Z,75.75
2023-02-11T04:55:07.357Z,74.47
2023-02-11T04:57:35.479Z,75.70
2023-02-11T05:00:04.919Z,76.48
2023-02-11T05:02:32.714Z,76.31
2023-02-11T05:05:00.508Z,74.36
2023-02-11T05:07:28.227Z,74.27
2023-02-11T05:09:56.012Z,73.87
2023-02-11T05:12:23.832Z,72.94
2023-02-11T05:14:51.561Z,73.42
2023-02-11T05:17:20.731Z,72.67
2023-02-11T05:19:48.438Z,74.14
2023-02-11T05:22:16.250Z,74.29
2023-02-11T05:24:43.967Z,74.31
2023-02-11T05:27:11.789Z,74.32
2023-02-11T05:29:39.816Z,74.65
2023-02-11T05:32:08.988Z,74.29
2023-02-11T05:34:38.242Z,74.05
2023-02-11T05:37:06.149Z,74.45
2023-02-11T05:39:33.945Z,73.67
2023-02-11T05:42:01.697Z,73.18
2023-02-11T05:44:29.427Z,73.20
2023-02-11T05:46:57.414Z,73.73
2023-02-11T05:49:25.227Z,72.93
2023-02-11T05:51:54.335Z,74.45
2023-02-11T05:54:22.275Z,73.28
2023-02-11T05:56:50.148Z,73.81
2023-02-11T05:59:18.027Z,73.23
2023-02-11T06:01:45.800Z,73.25
2023-02-11T06:04:13.623Z,73.69
2023-02-11T06:06:41.464Z,73.06
2023-02-11T06:09:11.623Z,74.46
2023-02-11T06:11:39.808Z,73.30
2023-02-11T06:14:07.628Z,72.72
2023-02-11T06:16:35.395Z,72.06
2023-02-11T06:19:03.322Z,71.87
2023-02-11T06:21:42.723Z,71.81
2023-02-11T06:24:13.222Z,73.53
2023-02-11T06:26:41.037Z,72.96
2023-02-11T06:29:08.852Z,71.99
2023-02-11T06:31:38.851Z,71.80
2023-02-11T06:34:06.912Z,72.27
2023-02-11T06:36:35.171Z,71.68
2023-02-11T06:39:02.994Z,70.97
2023-02-11T06:41:32.104Z,70.75
2023-02-11T06:43:59.875Z,72.39
2023-02-11T06:46:27.970Z,73.34
2023-02-11T06:48:55.940Z,73.81
2023-02-11T06:51:23.703Z,72.49
2023-02-11T06:53:51.555Z,71.04
2023-02-11T06:56:21.624Z,72.33
2023-02-11T06:58:55.454Z,71.45
2023-02-11T07:01:24.576Z,73.47
2023-02-11T07:03:53.093Z,73.49
2023-02-11T07:06:23.025Z,73.51
2023-02-11T07:08:50.950Z,73.03
2023-02-11T07:11:20.663Z,74.97
2023-02-11T07:13:50.196Z,74.07
2023-02-11T07:16:20.170Z,75.17
2023-02-11T07:18:48.941Z,74.59
2023-02-11T07:21:19.937Z,73.51
2023-02-11T07:23:48.900Z,71.08
2023-02-11T07:26:18.785Z,71.31
2023-02-11T07:28:47.450Z,72.31
2023-02-11T07:31:18.297Z,72.49
2023-02-11T07:33:46.747Z,70.94
2023-02-11T07:36:16.106Z,71.47
2023-02-11T07:38:44.321Z,72.53
2023-02-11T07:41:14.541Z,72.28
2023-02-11T07:43:42.664Z,71.40
2023-02-11T07:46:13.065Z,71.78
2023-02-11T07:48:42.219Z,71.89
2023-02-11T07:51:12.392Z,72.24
2023-02-11T07:53:40.345Z,70.91
2023-02-11T07:56:10.087Z,70.97
2023-02-11T07:58:38.071Z,71.83
2023-02-11T08:01:08.093Z,72.46
2023-02-11T08:03:37.072Z,71.55
2023-02-11T08:06:07.290Z,69.52
2023-02-11T08:08:35.156Z,70.42
2023-02-11T08:11:07.505Z,69.91
2023-02-11T08:13:35.536Z,69.00
2023-02-11T08:16:03.793Z,71.25
2023-02-11T08:18:32.244Z,69.70
2023-02-11T08:21:06.831Z,70.54
2023-02-11T08:23:34.944Z,71.13
2023-02-11T08:26:03.352Z,72.26
2023-02-11T08:28:31.513Z,71.69
2023-02-11T08:30:59.305Z,70.82
2023-02-11T08:33:27.032Z,69.92
2023-02-11T08:35:54.810Z,68.30
2023-02-11T08:38:23.944Z,70.30
2023-02-11T08:40:51.959Z,69.37
2023-02-11T08:43:19.920Z,70.45
2023-02-11T08:45:47.782Z,71.34
2023-02-11T08:48:15.612Z,71.63
2023-02-11T08:50:43.333Z,71.77
2023-02-11T08:53:11.098Z,72.63
2023-02-11T08:55:40.253Z,72.78
2023-02-11T08:58:08.119Z,71.22
2023-02-11T09:00:36.381Z,71.43
2023-02-11T09:03:04.384Z,71.61
2023-02-11T09:05:32.112Z,70.47
2023-02-11T09:07:59.840Z,70.22
2023-02-11T09:10:27.663Z,69.62
2023-02-11T09:12:56.776Z,70.21
2023-02-11T09:15:24.561Z,70.43
2023-02-11T09:17:52.335Z,70.73
2023-02-11T09:20:20.294Z,70.57
2023-02-11T09:22:48.153Z,70.88
2023-02-11T09:25:15.984Z,69.45
2023-02-11T09:27:43.725Z,68.36
2023-02-11T09:30:14.018Z,66.52
2023-02-11T09:32:41.822Z,66.94
2023-02-11T09:35:09.905Z,67.81
2023-02-11T09:37:37.712Z,67.57
2023-02-11T09:40:06.602Z,68.36
2023-02-11T09:42:52.921Z,67.43
2023-02-11T09:45:24.864Z,67.45
2023-02-11T09:47:56.620Z,67.70
2023-02-11T09:50:30.258Z,67.86
2023-02-11T09:53:01.588Z,67.45
2023-02-11T09:55:31.366Z,67.52
2023-02-11T09:57:59.632Z,68.60
2023-02-11T10:00:34.355Z,69.40
2023-02-11T10:03:43.527Z,69.43
2023-02-11T10:06:35.267Z,69.52
2023-02-11T10:09:17.406Z,67.95
2023-02-11T10:11:53.624Z,68.42
2023-02-11T10:14:37.044Z,67.67
2023-02-11T10:17:17.409Z,68.32
2023-02-11T10:19:58.757Z,68.52
2023-02-11T10:22:31.890Z,67.39
2023-02-11T10:25:01.808Z,67.79
2023-02-11T10:27:32.907Z,67.12
2023-02-11T10:30:05.614Z,66.52
2023-02-11T10:32:42.902Z,67.81
2023-02-11T10:35:17.915Z,68.01
2023-02-11T10:37:46.017Z,69.30
2023-02-11T10:40:16.724Z,69.87
2023-02-11T10:42:48.985Z,69.22
2023-02-11T10:45:23.239Z,69.59
2023-02-11T10:47:56.233Z,68.52
2023-02-11T10:50:26.884Z,67.91
2023-02-11T10:53:13.271Z,65.82
2023-02-11T10:55:53.384Z,66.74
2023-02-11T10:58:27.073Z,67.62
2023-02-11T11:00:57.078Z,68.81
2023-02-11T11:03:28.501Z,66.89
2023-02-11T11:05:58.813Z,67.28
2023-02-11T11:08:40.648Z,65.15
2023-02-11T11:11:09.997Z,65.93
2023-02-11T11:13:39.368Z,65.78
2023-02-11T11:16:16.007Z,65.73
2023-02-11T11:18:46.550Z,67.14
2023-02-11T11:21:16.996Z,67.45
2023-02-11T11:23:51.508Z,67.81
2023-02-11T11:26:19.852Z,67.43
2023-02-11T11:28:58.099Z,67.14
2023-02-11T11:31:29.785Z,67.36
2023-02-11T11:34:01.107Z,67.22
2023-02-11T11:36:37.913Z,69.19
2023-02-11T11:39:21.002Z,70.28
2023-02-11T11:41:55.218Z,70.65
2023-02-11T11:44:27.759Z,69.96
2023-02-11T11:47:16.858Z,69.27
2023-02-11T11:49:53.113Z,69.64
2023-02-11T11:52:34.460Z,67.94
2023-02-11T11:55:06.311Z,68.53
2023-02-11T11:57:38.606Z,68.55
2023-02-11T12:00:14.889Z,69.71
2023-02-11T12:03:19.598Z,68.56
2023-02-11T12:06:01.385Z,68.41
2023-02-11T12:08:42.121Z,66.26
2023-02-11T12:11:17.906Z,64.60
2023-02-11T12:13:58.015Z,67.66
2023-02-11T12:16:37.300Z,66.84
2023-02-11T12:19:37.760Z,65.92
2023-02-11T12:22:12.198Z,66.30
2023-02-11T12:24:54.619Z,65.73
2023-02-11T12:27:32.985Z,67.08
2023-02-11T12:30:07.469Z,67.55
2023-02-11T12:32:44.344Z,65.58
2023-02-11T12:35:29.341Z,66.64
2023-02-11T12:38:16.030Z,66.69
2023-02-11T12:40:46.775Z,66.28
2023-02-11T12:43:22.037Z,66.57
2023-02-11T12:46:11.510Z,65.20
2023-02-11T12:49:02.480Z,64.18
2023-02-11T12:51:46.427Z,65.16
2023-02-11T12:54:25.627Z,64.35
2023-02-11T12:57:02.246Z,64.30
2023-02-11T12:59:39.458Z,65.68
2023-02-11T13:02:17.883Z,64.80
2023-02-11T13:04:50.663Z,65.87
2023-02-11T13:07:27.884Z,65.39
2023-02-11T13:10:05.035Z,64.31
2023-02-11T13:12:52.353Z,65.52
2023-02-11T13:15:20.196Z,64.41
2023-02-11T13:17:55.596Z,65.45
2023-02-11T13:20:34.514Z,64.38
2023-02-11T13:23:12.260Z,64.84
2023-02-11T13:25:49.020Z,63.70
2023-02-11T13:28:29.097Z,64.23
2023-02-11T13:31:02.748Z,62.52
2023-02-11T13:33:36.096Z,63.14
2023-02-11T13:36:22.452Z,62.72
2023-02-11T13:39:02.909Z,62.46
2023-02-11T13:41:35.789Z,62.84
2023-02-11T13:44:23.125Z,62.58
2023-02-11T13:46:55.636Z,61.88
2023-02-11T13:49:27.044Z,61.09
2023-02-11T13:51:56.557Z,62.50
2023-02-11T13:54:31.057Z,62.21
2023-02-11T13:57:28.526Z,62.35
2023-02-11T13:59:57.343Z,62.52
2023-02-11T14:02:46.534Z,63.24
2023-02-11T14:05:41.781Z,63.71
2023-02-11T14:08:36.901Z,63.34
2023-02-11T14:11:12.369Z,63.36
2023-02-11T14:14:19.077Z,62.59
2023-02-11T14:17:21.318Z,62.44
2023-02-11T14:19:50.645Z,61.36
2023-02-11T14:22:23.776Z,62.60
2023-02-11T14:24:55.107Z,62.80
2023-02-11T14:27:30.798Z,63.00
2023-02-11T14:30:26.731Z,60.71
2023-02-11T14:33:18.356Z,61.37
2023-02-11T14:35:58.474Z,62.22
2023-02-11T14:38:35.765Z,62.21
2023-02-11T14:41:08.731Z,61.43
2023-02-11T14:43:41.215Z,60.62
2023-02-11T14:46:10.854Z,60.96
2023-02-11T14:48:44.220Z,59.92
2023-02-11T14:51:16.320Z,61.31
2023-02-11T14:53:47.528Z,61.14
2023-02-11T14:56:21.484Z,59.68
2023-02-11T14:58:51.951Z,58.87
2023-02-11T15:01:33.937Z,59.05
2023-02-11T15:04:03.520Z,59.59
2023-02-11T15:06:34.647Z,59.38
2023-02-11T15:09:07.178Z,60.54
2023-02-11T15:11:39.835Z,61.39
2023-02-11T15:14:10.758Z,61.39
2023-02-11T15:16:45.195Z,62.30
2023-02-11T15:19:22.745Z,62.63
2023-02-11T15:21:51.712Z,61.87
2023-02-11T15:24:26.469Z,61.38
2023-02-11T15:27:00.892Z,62.57
2023-02-11T15:29:30.536Z,61.68
2023-02-11T15:32:07.902Z,63.19
2023-02-11T15:34:36.096Z,61.69
2023-02-11T15:37:04.656Z,62.54
2023-02-11T15:39:36.519Z,62.56
2023-02-11T15:42:21.701Z,62.93
2023-02-11T15:44:56.537Z,61.90
2023-02-11T15:47:26.136Z,63.13
2023-02-11T15:49:54.018Z,63.02
2023-02-11T15:52:27.018Z,62.67
2023-02-11T15:54:57.364Z,63.51
2023-02-11T15:57:25.170Z,63.89
2023-02-11T15:59:54.885Z,62.95
2023-02-11T16:02:27.551Z,64.43
2023-02-11T16:04:58.285Z,64.79
2023-02-11T16:07:45.074Z,62.37
2023-02-11T16:10:24.899Z,62.62
2023-02-11T16:13:05.501Z,62.60
2023-02-11T16:15:44.982Z,61.60
2023-02-11T16:18:36.789Z,63.64
2023-02-11T16:21:08.687Z,65.67
2023-02-11T16:23:39.404Z,63.18
2023-02-11T16:26:11.201Z,62.28
2023-02-11T16:28:39.554Z,61.95
2023-02-11T16:31:07.701Z,63.62
2023-02-11T16:33:35.510Z,61.89
2023-02-11T16:36:13.199Z,64.20
2023-02-11T16:38:41.416Z,64.23
2023-02-11T16:41:11.881Z,64.50
2023-02-11T16:43:40.050Z,65.91
2023-02-11T16:46:09.256Z,64.79
2023-02-11T16:48:38.668Z,63.63
2023-02-11T16:51:09.167Z,63.28
2023-02-11T16:53:38.336Z,62.54
2023-02-11T16:56:06.596Z,63.79
2023-02-11T16:58:34.708Z,63.00
2023-02-11T17:01:02.692Z,62.51
2023-02-11T17:03:35.700Z,62.86
2023-02-11T17:06:05.632Z,62.16
2023-02-11T17:08:33.445Z,62.87
2023-02-11T17:11:02.702Z,62.70
2023-02-11T17:13:30.480Z,62.57
2023-02-11T17:15:58.366Z,62.27
2023-02-11T17:18:26.294Z,62.76
2023-02-11T17:20:54.201Z,61.89
2023-02-11T17:23:22.018Z,62.25
2023-02-11T17:25:56.497Z,62.39
2023-02-11T17:28:25.790Z,61.62
2023-02-11T17:30:53.655Z,61.98
2023-02-11T17:33:21.516Z,61.16
2023-02-11T17:35:49.471Z,61.93
2023-02-11T17:38:17.543Z,62.66
2023-02-11T17:40:45.309Z,63.00
2023-02-11T17:43:13.089Z,62.52
2023-02-11T17:45:43.719Z,63.52
2023-02-11T17:48:11.585Z,63.58
2023-02-11T17:50:39.362Z,63.19
2023-02-11T17:53:07.093Z,63.42
2023-02-11T17:55:35.242Z,64.35
2023-02-11T17:58:03.110Z,62.26
2023-02-11T18:00:31.333Z,62.13
2023-02-11T18:03:02.834Z,61.38
2023-02-11T18:05:35.537Z,62.88
2023-02-11T18:08:03.587Z,64.46
2023-02-11T18:10:31.730Z,64.29
2023-02-11T18:12:59.515Z,65.90
2023-02-11T18:15:27.492Z,65.43
2023-02-11T18:17:56.698Z,64.93
2023-02-11T18:20:25.922Z,64.55
2023-02-11T18:22:53.681Z,64.54
2023-02-11T18:25:21.542Z,65.38
2023-02-11T18:27:49.303Z,65.72
2023-02-11T18:30:19.022Z,66.88
2023-02-11T18:32:46.821Z,66.97
2023-02-11T18:35:15.835Z,66.83
2023-02-11T18:37:45.017Z,65.87
2023-02-11T18:40:13.972Z,65.13
2023-02-11T18:42:42.776Z,66.85
2023-02-11T18:45:14.941Z,67.62
2023-02-11T18:47:42.835Z,66.50
2023-02-11T18:50:13.715Z,65.00
2023-02-11T18:52:41.559Z,66.03
2023-02-11T18:55:11.139Z,67.28
2023-02-11T18:57:38.905Z,68.04
2023-02-11T19:00:09.981Z,67.00
2023-02-11T19:02:37.887Z,67.17
2023-02-11T19:05:06.405Z,67.39
2023-02-11T19:07:34.168Z,64.91
2023-02-11T19:10:01.942Z,65.56
2023-02-11T19:12:33.024Z,68.08
2023-02-11T19:15:01.075Z,69.03
2023-02-11T19:17:28.922Z,67.19
2023-02-11T19:19:56.657Z,68.71
2023-02-11T19:22:24.433Z,69.47
2023-02-11T19:24:52.182Z,68.51
2023-02-11T19:27:19.904Z,69.62
2023-02-11T19:29:49.388Z,68.17
2023-02-11T19:32:17.248Z,67.48
2023-02-11T19:34:45.061Z,68.45
2023-02-11T19:37:13.696Z,68.66
2023-02-11T19:39:42.112Z,69.35
2023-02-11T19:42:10.100Z,69.88
2023-02-11T19:44:37.869Z,67.26
2023-02-11T19:47:07.827Z,65.12
2023-02-11T19:49:35.546Z,65.05
2023-02-11T19:52:03.307Z,66.25
2023-02-11T19:54:31.066Z,66.15
2023-02-11T19:56:59.434Z,65.73
2023-02-11T19:59:27.576Z,66.67
2023-02-11T20:01:55.359Z,66.58
2023-02-11T20:04:25.137Z,65.51
2023-02-11T20:06:53.030Z,65.26
2023-02-11T20:09:21.641Z,66.85
2023-02-11T20:11:50.133Z,65.86
2023-02-11T20:14:17.863Z,66.63
2023-02-11T20:16:49.489Z,65.89
2023-02-11T20:19:19.017Z,65.10
2023-02-11T20:21:49.456Z,65.88
2023-02-11T20:24:18.473Z,67.94
2023-02-11T20:26:48.241Z,69.30
2023-02-11T20:29:17.238Z,69.14
2023-02-11T20:31:45.517Z,69.55
2023-02-11T20:34:13.502Z,68.52
2023-02-11T20:36:41.992Z,66.46
2023-02-11T20:39:17.018Z,67.55
2023-02-11T20:41:45.921Z,66.60
2023-02-11T20:44:14.917Z,66.94
2023-02-11T20:46:45.901Z,65.88
2023-02-11T20:49:15.271Z,65.91
2023-02-11T20:51:43.583Z,67.03
2023-02-11T20:54:15.304Z,66.32
2023-02-11T20:56:45.505Z,66.32
2023-02-11T20:59:16.523Z,66.79
2023-02-11T21:01:46.415Z,65.52
2023-02-11T21:04:16.710Z,66.06
2023-02-11T21:06:47.123Z,66.24
2023-02-11T21:09:19.731Z,66.15
2023-02-11T21:11:47.970Z,66.60
2023-02-11T21:14:16.226Z,67.93
2023-02-11T21:16:44.056Z,68.48
2023-02-11T21:19:11.966Z,68.33
2023-02-11T21:21:40.663Z,70.12
2023-02-11T21:24:09.316Z,69.05
2023-02-11T21:26:38.999Z,68.69
2023-02-11T21:29:08.345Z,67.86
2023-02-11T21:31:37.376Z,67.59
2023-02-11T21:34:05.799Z,69.78
2023-02-11T21:36:33.753Z,69.09
2023-02-11T21:39:01.782Z,69.92
2023-02-11T21:41:29.769Z,68.47
2023-02-11T21:43:58.975Z,67.49
2023-02-11T21:46:27.297Z,69.28
2023-02-11T21:48:55.174Z,68.37
2023-02-11T21:51:25.137Z,67.89
2023-02-11T21:53:57.503Z,68.65
2023-02-11T21:56:27.943Z,68.04
2023-02-11T21:58:56.982Z,68.25
2023-02-11T22:01:28.766Z,68.48
2023-02-11T22:03:57.409Z,70.26
2023-02-11T22:06:30.767Z,71.13
2023-02-11T22:09:00.406Z,71.06
2023-02-11T22:11:28.344Z,68.85
2023-02-11T22:13:57.799Z,68.37
2023-02-11T22:16:28.292Z,66.79
2023-02-11T22:18:58.360Z,65.98
2023-02-11T22:21:27.998Z,65.39
2023-02-11T22:23:56.808Z,66.74
2023-02-11T22:26:27.113Z,67.26
2023-02-11T22:28:55.417Z,69.37
2023-02-11T22:31:25.626Z,71.35
2023-02-11T22:33:55.228Z,69.85
2023-02-11T22:36:24.978Z,69.80
2023-02-11T22:38:53.536Z,68.30
2023-02-11T22:41:22.827Z,68.24
2023-02-11T22:43:50.867Z,67.63
2023-02-11T22:46:20.317Z,68.13
2023-02-11T22:48:49.561Z,68.42
2023-02-11T22:51:21.114Z,68.21
2023-02-11T22:53:53.492Z,66.39
2023-02-11T22:56:21.514Z,64.89
2023-02-11T22:58:49.610Z,64.83
2023-02-11T23:01:18.907Z,64.70
2023-02-11T23:03:47.079Z,64.17
2023-02-11T23:06:15.058Z,67.49
2023-02-11T23:08:44.442Z,67.56
2023-02-11T23:11:14.677Z,68.14
2023-02-11T23:13:44.390Z,67.70
2023-02-11T23:16:14.668Z,67.12
2023-02-11T23:18:44.458Z,66.50
2023-02-11T23:21:15.926Z,66.70
2023-02-11T23:23:46.234Z,66.04
2023-02-11T23:26:17.526Z,66.21
2023-02-11T23:28:47.073Z,64.61
2023-02-11T23:31:17.571Z,64.13
2023-02-11T23:33:46.021Z,64.80
2023-02-11T23:36:14.218Z,66.06
2023-02-11T23:38:42.063Z,64.60
2023-02-11T23:41:11.755Z,64.57
2023-02-11T23:43:39.863Z,64.54
2023-02-11T23:46:08.837Z,64.65
2023-02-11T23:48:37.640Z,64.59
2023-02-11T23:51:06.396Z,65.50
2023-02-11T23:53:34.157Z,64.23
2023-02-11T23:56:01.992Z,65.03
2023-02-11T23:58:31.257Z,64.58
